sensor_id;sensor_type;location;lat;lon;timestamp;P1;durP1;ratioP1;P2;durP2;ratioP2
8831;SDS011;4452;50.756;4.472;2022-08-05T00:01:41;14.88;;;8.27;;
8831;SDS011;4452;50.756;4.472;2022-08-05T00:04:07;15.10;;;8.30;;
8831;SDS011;4452;50.756;4.472;2022-08-05T00:06:33;19.60;;;8.05;;
8831;SDS011;4452;50.756;4.472;2022-08-05T00:08:59;10.93;;;7.75;;
8831;SDS011;4452;50.756;4.472;2022-08-05T00:11:25;17.52;;;7.85;;
8831;SDS011;4452;50.756;4.472;2022-08-05T00:13:52;13.98;;;7.63;;
8831;SDS011;4452;50.756;4.472;2022-08-05T00:16:17;12.93;;;7.25;;
8831;SDS011;4452;50.756;4.472;2022-08-05T00:18:44;13.50;;;7.03;;
8831;SDS011;4452;50.756;4.472;2022-08-05T00:21:12;15.65;;;7.32;;
8831;SDS011;4452;50.756;4.472;2022-08-05T00:23:38;15.73;;;6.95;;
8831;SDS011;4452;50.756;4.472;2022-08-05T00:26:04;15.15;;;8.40;;
8831;SDS011;4452;50.756;4.472;2022-08-05T00:28:31;20.00;;;9.02;;
8831;SDS011;4452;50.756;4.472;2022-08-05T00:30:57;29.60;;;9.88;;
8831;SDS011;4452;50.756;4.472;2022-08-05T00:33:22;23.85;;;9.82;;
8831;SDS011;4452;50.756;4.472;2022-08-05T00:35:48;20.33;;;9.93;;
8831;SDS011;4452;50.756;4.472;2022-08-05T00:38:14;17.00;;;9.48;;
8831;SDS011;4452;50.756;4.472;2022-08-05T00:40:50;15.48;;;9.68;;
8831;SDS011;4452;50.756;4.472;2022-08-05T00:43:20;15.45;;;9.95;;
8831;SDS011;4452;50.756;4.472;2022-08-05T00:45:46;24.20;;;10.07;;
8831;SDS011;4452;50.756;4.472;2022-08-05T00:48:13;20.27;;;10.52;;
8831;SDS011;4452;50.756;4.472;2022-08-05T00:50:42;24.45;;;11.35;;
8831;SDS011;4452;50.756;4.472;2022-08-05T00:53:09;19.15;;;11.27;;
8831;SDS011;4452;50.756;4.472;2022-08-05T00:55:35;13.20;;;8.65;;
8831;SDS011;4452;50.756;4.472;2022-08-05T00:58:01;19.45;;;9.57;;
8831;SDS011;4452;50.756;4.472;2022-08-05T01:00:28;25.92;;;11.57;;
8831;SDS011;4452;50.756;4.472;2022-08-05T01:02:55;22.92;;;10.50;;
8831;SDS011;4452;50.756;4.472;2022-08-05T01:05:22;20.17;;;10.73;;
8831;SDS011;4452;50.756;4.472;2022-08-05T01:07:48;22.50;;;9.40;;
8831;SDS011;4452;50.756;4.472;2022-08-05T01:10:15;23.73;;;9.68;;
8831;SDS011;4452;50.756;4.472;2022-08-05T01:12:44;21.23;;;9.40;;
8831;SDS011;4452;50.756;4.472;2022-08-05T01:15:13;20.83;;;9.55;;
8831;SDS011;4452;50.756;4.472;2022-08-05T01:18:08;23.27;;;9.93;;
8831;SDS011;4452;50.756;4.472;2022-08-05T01:29:03;11.98;;;6.50;;
8831;SDS011;4452;50.756;4.472;2022-08-05T01:34:27;18.05;;;6.60;;
8831;SDS011;4452;50.756;4.472;2022-08-05T01:37:04;13.50;;;6.10;;
8831;SDS011;4452;50.756;4.472;2022-08-05T01:39:35;11.65;;;6.95;;
8831;SDS011;4452;50.756;4.472;2022-08-05T01:42:04;15.95;;;7.43;;
8831;SDS011;4452;50.756;4.472;2022-08-05T01:44:32;11.60;;;7.47;;
8831;SDS011;4452;50.756;4.472;2022-08-05T01:46:59;19.60;;;8.38;;
8831;SDS011;4452;50.756;4.472;2022-08-05T01:49:26;12.68;;;8.00;;
8831;SDS011;4452;50.756;4.472;2022-08-05T01:51:58;16.83;;;7.97;;
8831;SDS011;4452;50.756;4.472;2022-08-05T01:54:38;19.00;;;8.20;;
8831;SDS011;4452;50.756;4.472;2022-08-05T01:57:05;21.48;;;8.60;;
8831;SDS011;4452;50.756;4.472;2022-08-05T01:59:33;14.35;;;7.85;;
8831;SDS011;4452;50.756;4.472;2022-08-05T02:02:01;13.63;;;7.68;;
8831;SDS011;4452;50.756;4.472;2022-08-05T02:04:28;12.43;;;7.03;;
8831;SDS011;4452;50.756;4.472;2022-08-05T02:06:56;13.65;;;7.70;;
8831;SDS011;4452;50.756;4.472;2022-08-05T02:09:24;16.92;;;7.07;;
8831;SDS011;4452;50.756;4.472;2022-08-05T02:11:54;12.32;;;6.95;;
8831;SDS011;4452;50.756;4.472;2022-08-05T02:15:04;13.52;;;7.07;;
8831;SDS011;4452;50.756;4.472;2022-08-05T02:17:34;13.85;;;7.90;;
8831;SDS011;4452;50.756;4.472;2022-08-05T02:20:03;14.52;;;7.53;;
8831;SDS011;4452;50.756;4.472;2022-08-05T02:22:35;13.45;;;7.60;;
8831;SDS011;4452;50.756;4.472;2022-08-05T02:25:13;16.15;;;7.05;;
8831;SDS011;4452;50.756;4.472;2022-08-05T02:27:46;16.95;;;7.00;;
8831;SDS011;4452;50.756;4.472;2022-08-05T02:30:14;14.27;;;7.38;;
8831;SDS011;4452;50.756;4.472;2022-08-05T02:32:42;12.75;;;7.90;;
8831;SDS011;4452;50.756;4.472;2022-08-05T02:35:13;12.10;;;7.60;;
8831;SDS011;4452;50.756;4.472;2022-08-05T02:37:43;13.32;;;7.38;;
8831;SDS011;4452;50.756;4.472;2022-08-05T02:40:10;10.90;;;7.18;;
8831;SDS011;4452;50.756;4.472;2022-08-05T02:42:37;12.13;;;7.25;;
8831;SDS011;4452;50.756;4.472;2022-08-05T02:45:03;17.20;;;7.90;;
8831;SDS011;4452;50.756;4.472;2022-08-05T02:47:33;16.58;;;8.15;;
8831;SDS011;4452;50.756;4.472;2022-08-05T02:50:00;14.98;;;8.25;;
8831;SDS011;4452;50.756;4.472;2022-08-05T02:52:27;14.43;;;8.20;;
8831;SDS011;4452;50.756;4.472;2022-08-05T02:54:53;18.77;;;7.53;;
8831;SDS011;4452;50.756;4.472;2022-08-05T02:57:20;18.25;;;8.70;;
8831;SDS011;4452;50.756;4.472;2022-08-05T02:59:48;13.35;;;8.15;;
8831;SDS011;4452;50.756;4.472;2022-08-05T03:02:16;14.75;;;8.43;;
8831;SDS011;4452;50.756;4.472;2022-08-05T03:04:45;16.38;;;8.00;;
8831;SDS011;4452;50.756;4.472;2022-08-05T03:07:12;11.23;;;7.40;;
8831;SDS011;4452;50.756;4.472;2022-08-05T03:09:40;15.35;;;7.40;;
8831;SDS011;4452;50.756;4.472;2022-08-05T03:12:07;13.02;;;7.80;;
8831;SDS011;4452;50.756;4.472;2022-08-05T03:14:33;14.70;;;7.97;;
8831;SDS011;4452;50.756;4.472;2022-08-05T03:16:58;19.58;;;8.18;;
8831;SDS011;4452;50.756;4.472;2022-08-05T03:19:24;14.57;;;7.78;;
8831;SDS011;4452;50.756;4.472;2022-08-05T03:21:50;18.25;;;7.82;;
8831;SDS011;4452;50.756;4.472;2022-08-05T03:24:17;17.55;;;8.23;;
8831;SDS011;4452;50.756;4.472;2022-08-05T03:26:43;13.73;;;8.15;;
8831;SDS011;4452;50.756;4.472;2022-08-05T03:29:09;23.88;;;9.43;;
8831;SDS011;4452;50.756;4.472;2022-08-05T03:31:35;16.48;;;8.43;;
8831;SDS011;4452;50.756;4.472;2022-08-05T03:34:02;20.25;;;9.07;;
8831;SDS011;4452;50.756;4.472;2022-08-05T03:36:28;16.42;;;8.90;;
8831;SDS011;4452;50.756;4.472;2022-08-05T03:38:55;17.73;;;9.80;;
8831;SDS011;4452;50.756;4.472;2022-08-05T03:41:21;17.95;;;8.95;;
8831;SDS011;4452;50.756;4.472;2022-08-05T03:43:47;21.88;;;10.43;;
8831;SDS011;4452;50.756;4.472;2022-08-05T03:46:12;27.08;;;10.70;;
8831;SDS011;4452;50.756;4.472;2022-08-05T03:48:38;20.75;;;10.32;;
8831;SDS011;4452;50.756;4.472;2022-08-05T03:51:20;18.85;;;10.48;;
8831;SDS011;4452;50.756;4.472;2022-08-05T03:53:57;22.58;;;11.02;;
8831;SDS011;4452;50.756;4.472;2022-08-05T03:56:28;27.67;;;10.93;;
8831;SDS011;4452;50.756;4.472;2022-08-05T03:59:02;22.13;;;10.57;;
8831;SDS011;4452;50.756;4.472;2022-08-05T04:01:34;28.13;;;10.93;;
8831;SDS011;4452;50.756;4.472;2022-08-05T04:04:02;24.08;;;11.27;;
8831;SDS011;4452;50.756;4.472;2022-08-05T04:06:28;21.52;;;11.07;;
8831;SDS011;4452;50.756;4.472;2022-08-05T04:08:55;23.40;;;11.63;;
8831;SDS011;4452;50.756;4.472;2022-08-05T04:11:21;20.83;;;10.88;;
8831;SDS011;4452;50.756;4.472;2022-08-05T04:13:46;19.27;;;11.23;;
8831;SDS011;4452;50.756;4.472;2022-08-05T04:16:13;21.73;;;11.38;;
8831;SDS011;4452;50.756;4.472;2022-08-05T04:18:39;31.05;;;12.02;;
8831;SDS011;4452;50.756;4.472;2022-08-05T04:21:06;26.38;;;12.25;;
8831;SDS011;4452;50.756;4.472;2022-08-05T04:23:33;22.35;;;12.00;;
8831;SDS011;4452;50.756;4.472;2022-08-05T04:26:01;21.73;;;11.95;;
8831;SDS011;4452;50.756;4.472;2022-08-05T04:28:27;20.55;;;11.65;;
8831;SDS011;4452;50.756;4.472;2022-08-05T04:30:52;24.92;;;11.15;;
8831;SDS011;4452;50.756;4.472;2022-08-05T04:33:18;30.65;;;12.23;;
8831;SDS011;4452;50.756;4.472;2022-08-05T04:35:44;27.15;;;12.40;;
8831;SDS011;4452;50.756;4.472;2022-08-05T04:38:10;25.85;;;12.05;;
8831;SDS011;4452;50.756;4.472;2022-08-05T04:40:36;24.70;;;11.18;;
8831;SDS011;4452;50.756;4.472;2022-08-05T04:43:03;31.50;;;12.20;;
8831;SDS011;4452;50.756;4.472;2022-08-05T04:45:29;25.00;;;11.18;;
8831;SDS011;4452;50.756;4.472;2022-08-05T04:48:29;29.23;;;10.93;;
8831;SDS011;4452;50.756;4.472;2022-08-05T04:50:47;22.60;;;11.38;;
8831;SDS011;4452;50.756;4.472;2022-08-05T04:53:15;27.80;;;11.90;;
8831;SDS011;4452;50.756;4.472;2022-08-05T04:55:41;22.60;;;11.77;;
8831;SDS011;4452;50.756;4.472;2022-08-05T04:58:09;23.45;;;10.85;;
8831;SDS011;4452;50.756;4.472;2022-08-05T05:00:36;23.52;;;11.32;;
8831;SDS011;4452;50.756;4.472;2022-08-05T05:03:03;26.83;;;10.75;;
8831;SDS011;4452;50.756;4.472;2022-08-05T05:05:30;24.27;;;11.13;;
8831;SDS011;4452;50.756;4.472;2022-08-05T05:07:59;20.80;;;10.88;;
8831;SDS011;4452;50.756;4.472;2022-08-05T05:10:27;17.27;;;10.43;;
8831;SDS011;4452;50.756;4.472;2022-08-05T05:12:54;21.90;;;10.68;;
8831;SDS011;4452;50.756;4.472;2022-08-05T05:15:20;27.35;;;11.25;;
8831;SDS011;4452;50.756;4.472;2022-08-05T05:17:46;21.52;;;9.90;;
8831;SDS011;4452;50.756;4.472;2022-08-05T05:20:12;20.55;;;9.80;;
8831;SDS011;4452;50.756;4.472;2022-08-05T05:22:38;19.75;;;9.80;;
8831;SDS011;4452;50.756;4.472;2022-08-05T05:25:04;15.07;;;9.05;;
8831;SDS011;4452;50.756;4.472;2022-08-05T05:27:31;16.95;;;9.43;;
8831;SDS011;4452;50.756;4.472;2022-08-05T05:29:58;19.25;;;9.27;;
8831;SDS011;4452;50.756;4.472;2022-08-05T05:32:24;19.50;;;9.73;;
8831;SDS011;4452;50.756;4.472;2022-08-05T05:34:50;22.38;;;9.40;;
8831;SDS011;4452;50.756;4.472;2022-08-05T05:37:15;21.13;;;8.98;;
8831;SDS011;4452;50.756;4.472;2022-08-05T05:39:41;20.13;;;8.82;;
8831;SDS011;4452;50.756;4.472;2022-08-05T05:42:07;21.58;;;9.05;;
8831;SDS011;4452;50.756;4.472;2022-08-05T05:44:32;17.33;;;9.00;;
8831;SDS011;4452;50.756;4.472;2022-08-05T05:46:58;20.73;;;8.38;;
8831;SDS011;4452;50.756;4.472;2022-08-05T05:49:24;20.50;;;8.32;;
8831;SDS011;4452;50.756;4.472;2022-08-05T05:51:50;21.30;;;8.85;;
8831;SDS011;4452;50.756;4.472;2022-08-05T05:54:16;12.32;;;8.40;;
8831;SDS011;4452;50.756;4.472;2022-08-05T05:56:42;20.10;;;8.55;;
8831;SDS011;4452;50.756;4.472;2022-08-05T05:59:08;17.33;;;9.30;;
8831;SDS011;4452;50.756;4.472;2022-08-05T06:01:35;14.82;;;8.35;;
8831;SDS011;4452;50.756;4.472;2022-08-05T06:04:02;20.20;;;8.55;;
8831;SDS011;4452;50.756;4.472;2022-08-05T06:06:29;20.83;;;8.30;;
8831;SDS011;4452;50.756;4.472;2022-08-05T06:08:54;18.30;;;8.50;;
8831;SDS011;4452;50.756;4.472;2022-08-05T06:11:20;18.27;;;8.50;;
8831;SDS011;4452;50.756;4.472;2022-08-05T06:13:46;18.52;;;8.80;;
8831;SDS011;4452;50.756;4.472;2022-08-05T06:16:11;15.95;;;8.10;;
8831;SDS011;4452;50.756;4.472;2022-08-05T06:18:37;14.90;;;7.75;;
8831;SDS011;4452;50.756;4.472;2022-08-05T06:21:03;18.58;;;8.25;;
8831;SDS011;4452;50.756;4.472;2022-08-05T06:23:29;17.55;;;8.13;;
8831;SDS011;4452;50.756;4.472;2022-08-05T06:25:55;18.30;;;8.15;;
8831;SDS011;4452;50.756;4.472;2022-08-05T06:28:21;14.48;;;7.38;;
8831;SDS011;4452;50.756;4.472;2022-08-05T06:30:47;22.05;;;8.75;;
8831;SDS011;4452;50.756;4.472;2022-08-05T06:33:13;15.63;;;8.07;;
8831;SDS011;4452;50.756;4.472;2022-08-05T06:35:39;20.00;;;7.72;;
8831;SDS011;4452;50.756;4.472;2022-08-05T06:38:04;17.55;;;8.20;;
8831;SDS011;4452;50.756;4.472;2022-08-05T06:40:30;15.95;;;7.35;;
8831;SDS011;4452;50.756;4.472;2022-08-05T06:42:56;17.67;;;7.20;;
8831;SDS011;4452;50.756;4.472;2022-08-05T06:45:22;17.55;;;6.80;;
8831;SDS011;4452;50.756;4.472;2022-08-05T06:47:47;16.00;;;7.20;;
8831;SDS011;4452;50.756;4.472;2022-08-05T06:50:13;16.75;;;7.10;;
8831;SDS011;4452;50.756;4.472;2022-08-05T06:52:39;19.95;;;7.60;;
8831;SDS011;4452;50.756;4.472;2022-08-05T06:55:05;13.70;;;6.57;;
8831;SDS011;4452;50.756;4.472;2022-08-05T06:57:31;16.65;;;7.22;;
8831;SDS011;4452;50.756;4.472;2022-08-05T06:59:56;19.17;;;8.45;;
8831;SDS011;4452;50.756;4.472;2022-08-05T07:02:22;21.33;;;7.15;;
8831;SDS011;4452;50.756;4.472;2022-08-05T07:04:49;15.02;;;7.43;;
8831;SDS011;4452;50.756;4.472;2022-08-05T07:07:14;15.80;;;6.97;;
8831;SDS011;4452;50.756;4.472;2022-08-05T07:09:40;13.77;;;7.55;;
8831;SDS011;4452;50.756;4.472;2022-08-05T07:12:06;17.63;;;6.85;;
8831;SDS011;4452;50.756;4.472;2022-08-05T07:14:32;15.98;;;7.28;;
8831;SDS011;4452;50.756;4.472;2022-08-05T07:17:17;18.15;;;7.20;;
8831;SDS011;4452;50.756;4.472;2022-08-05T07:19:42;12.48;;;6.60;;
8831;SDS011;4452;50.756;4.472;2022-08-05T07:22:08;12.63;;;6.90;;
8831;SDS011;4452;50.756;4.472;2022-08-05T07:24:34;15.40;;;6.72;;
8831;SDS011;4452;50.756;4.472;2022-08-05T07:26:59;12.00;;;6.10;;
8831;SDS011;4452;50.756;4.472;2022-08-05T07:29:25;14.52;;;6.25;;
8831;SDS011;4452;50.756;4.472;2022-08-05T07:31:51;14.30;;;6.45;;
8831;SDS011;4452;50.756;4.472;2022-08-05T07:34:16;13.40;;;6.80;;
8831;SDS011;4452;50.756;4.472;2022-08-05T07:36:42;16.10;;;6.70;;
8831;SDS011;4452;50.756;4.472;2022-08-05T07:39:08;16.50;;;7.00;;
8831;SDS011;4452;50.756;4.472;2022-08-05T07:41:34;13.20;;;7.03;;
8831;SDS011;4452;50.756;4.472;2022-08-05T07:44:01;17.73;;;7.35;;
8831;SDS011;4452;50.756;4.472;2022-08-05T07:46:29;18.00;;;6.68;;
8831;SDS011;4452;50.756;4.472;2022-08-05T07:48:56;13.50;;;6.43;;
8831;SDS011;4452;50.756;4.472;2022-08-05T07:51:23;10.57;;;6.20;;
8831;SDS011;4452;50.756;4.472;2022-08-05T07:53:49;10.38;;;6.47;;
8831;SDS011;4452;50.756;4.472;2022-08-05T07:56:15;15.80;;;6.57;;
8831;SDS011;4452;50.756;4.472;2022-08-05T07:58:41;13.52;;;7.47;;
8831;SDS011;4452;50.756;4.472;2022-08-05T08:01:06;20.05;;;7.80;;
8831;SDS011;4452;50.756;4.472;2022-08-05T08:03:32;18.92;;;7.18;;
8831;SDS011;4452;50.756;4.472;2022-08-05T08:05:58;15.85;;;7.75;;
8831;SDS011;4452;50.756;4.472;2022-08-05T08:08:24;15.57;;;7.63;;
8831;SDS011;4452;50.756;4.472;2022-08-05T08:10:49;10.00;;;6.72;;
8831;SDS011;4452;50.756;4.472;2022-08-05T08:13:15;18.00;;;7.70;;
8831;SDS011;4452;50.756;4.472;2022-08-05T08:15:41;11.48;;;7.00;;
8831;SDS011;4452;50.756;4.472;2022-08-05T08:18:07;16.58;;;6.95;;
8831;SDS011;4452;50.756;4.472;2022-08-05T08:20:32;15.60;;;6.95;;
8831;SDS011;4452;50.756;4.472;2022-08-05T08:22:58;13.38;;;6.90;;
8831;SDS011;4452;50.756;4.472;2022-08-05T08:25:25;16.08;;;7.05;;
8831;SDS011;4452;50.756;4.472;2022-08-05T08:27:55;11.23;;;6.30;;
8831;SDS011;4452;50.756;4.472;2022-08-05T08:30:21;13.50;;;6.53;;
8831;SDS011;4452;50.756;4.472;2022-08-05T08:32:46;12.38;;;5.90;;
8831;SDS011;4452;50.756;4.472;2022-08-05T08:35:12;9.38;;;5.72;;
8831;SDS011;4452;50.756;4.472;2022-08-05T08:37:38;16.23;;;5.97;;
8831;SDS011;4452;50.756;4.472;2022-08-05T08:40:04;11.65;;;5.70;;
8831;SDS011;4452;50.756;4.472;2022-08-05T08:42:30;11.35;;;4.60;;
8831;SDS011;4452;50.756;4.472;2022-08-05T08:44:57;10.07;;;4.70;;
8831;SDS011;4452;50.756;4.472;2022-08-05T08:47:25;5.72;;;4.10;;
8831;SDS011;4452;50.756;4.472;2022-08-05T08:49:53;9.82;;;3.70;;
8831;SDS011;4452;50.756;4.472;2022-08-05T08:52:24;11.57;;;4.35;;
8831;SDS011;4452;50.756;4.472;2022-08-05T08:54:55;12.55;;;4.55;;
8831;SDS011;4452;50.756;4.472;2022-08-05T08:57:21;9.40;;;3.70;;
8831;SDS011;4452;50.756;4.472;2022-08-05T08:59:48;10.35;;;4.50;;
8831;SDS011;4452;50.756;4.472;2022-08-05T09:02:14;12.20;;;3.90;;
8831;SDS011;4452;50.756;4.472;2022-08-05T09:04:43;11.80;;;3.95;;
8831;SDS011;4452;50.756;4.472;2022-08-05T09:07:10;6.13;;;3.28;;
8831;SDS011;4452;50.756;4.472;2022-08-05T09:09:36;9.45;;;3.50;;
8831;SDS011;4452;50.756;4.472;2022-08-05T09:12:03;8.55;;;3.53;;
8831;SDS011;4452;50.756;4.472;2022-08-05T09:14:30;4.00;;;3.35;;
8831;SDS011;4452;50.756;4.472;2022-08-05T09:16:57;6.93;;;3.10;;
8831;SDS011;4452;50.756;4.472;2022-08-05T09:19:26;5.07;;;3.10;;
8831;SDS011;4452;50.756;4.472;2022-08-05T09:21:52;6.38;;;3.42;;
8831;SDS011;4452;50.756;4.472;2022-08-05T09:24:18;7.00;;;3.47;;
8831;SDS011;4452;50.756;4.472;2022-08-05T09:26:50;10.43;;;3.47;;
8831;SDS011;4452;50.756;4.472;2022-08-05T09:29:17;10.57;;;3.50;;
8831;SDS011;4452;50.756;4.472;2022-08-05T09:31:43;7.88;;;3.50;;
8831;SDS011;4452;50.756;4.472;2022-08-05T09:34:24;6.55;;;3.10;;
8831;SDS011;4452;50.756;4.472;2022-08-05T09:36:50;9.93;;;2.35;;
8831;SDS011;4452;50.756;4.472;2022-08-05T09:39:17;9.23;;;3.00;;
8831;SDS011;4452;50.756;4.472;2022-08-05T09:47:15;10.73;;;2.97;;
8831;SDS011;4452;50.756;4.472;2022-08-05T09:49:48;9.20;;;2.67;;
8831;SDS011;4452;50.756;4.472;2022-08-05T09:52:17;3.97;;;2.45;;
8831;SDS011;4452;50.756;4.472;2022-08-05T09:55:00;8.15;;;2.85;;
8831;SDS011;4452;50.756;4.472;2022-08-05T09:57:30;8.82;;;2.95;;
8831;SDS011;4452;50.756;4.472;2022-08-05T10:00:10;4.88;;;2.97;;
8831;SDS011;4452;50.756;4.472;2022-08-05T10:02:39;3.17;;;2.33;;
8831;SDS011;4452;50.756;4.472;2022-08-05T10:07:42;6.78;;;2.50;;
8831;SDS011;4452;50.756;4.472;2022-08-05T10:10:10;3.17;;;2.45;;
8831;SDS011;4452;50.756;4.472;2022-08-05T10:12:43;7.57;;;2.83;;
8831;SDS011;4452;50.756;4.472;2022-08-05T10:15:19;6.10;;;2.90;;
8831;SDS011;4452;50.756;4.472;2022-08-05T10:18:31;8.85;;;3.75;;
8831;SDS011;4452;50.756;4.472;2022-08-05T10:20:35;7.30;;;3.78;;
8831;SDS011;4452;50.756;4.472;2022-08-05T10:25:34;9.07;;;4.05;;
8831;SDS011;4452;50.756;4.472;2022-08-05T10:28:00;4.13;;;3.35;;
8831;SDS011;4452;50.756;4.472;2022-08-05T10:30:26;7.78;;;3.95;;
8831;SDS011;4452;50.756;4.472;2022-08-05T10:32:53;4.63;;;3.20;;
8831;SDS011;4452;50.756;4.472;2022-08-05T10:35:21;4.05;;;2.33;;
8831;SDS011;4452;50.756;4.472;2022-08-05T10:37:46;2.50;;;2.08;;
8831;SDS011;4452;50.756;4.472;2022-08-05T10:46:21;6.28;;;2.70;;
8831;SDS011;4452;50.756;4.472;2022-08-05T10:48:48;5.25;;;2.75;;
8831;SDS011;4452;50.756;4.472;2022-08-05T10:51:19;5.57;;;2.10;;
8831;SDS011;4452;50.756;4.472;2022-08-05T10:56:21;3.37;;;2.30;;
8831;SDS011;4452;50.756;4.472;2022-08-05T11:09:25;7.95;;;1.67;;
8831;SDS011;4452;50.756;4.472;2022-08-05T11:11:53;4.45;;;1.73;;
8831;SDS011;4452;50.756;4.472;2022-08-05T11:14:29;6.15;;;1.98;;
8831;SDS011;4452;50.756;4.472;2022-08-05T11:19:54;5.93;;;1.60;;
8831;SDS011;4452;50.756;4.472;2022-08-05T11:25:25;5.32;;;1.70;;
8831;SDS011;4452;50.756;4.472;2022-08-05T11:35:56;1.65;;;1.42;;
8831;SDS011;4452;50.756;4.472;2022-08-05T11:46:36;6.20;;;2.03;;
8831;SDS011;4452;50.756;4.472;2022-08-05T11:49:02;4.20;;;1.60;;
8831;SDS011;4452;50.756;4.472;2022-08-05T11:51:29;5.85;;;1.67;;
8831;SDS011;4452;50.756;4.472;2022-08-05T11:53:55;3.15;;;1.50;;
8831;SDS011;4452;50.756;4.472;2022-08-05T11:56:22;2.83;;;1.80;;
8831;SDS011;4452;50.756;4.472;2022-08-05T11:58:49;2.85;;;1.50;;
8831;SDS011;4452;50.756;4.472;2022-08-05T12:01:16;7.38;;;1.50;;
8831;SDS011;4452;50.756;4.472;2022-08-05T12:03:45;3.80;;;1.52;;
8831;SDS011;4452;50.756;4.472;2022-08-05T12:06:16;6.30;;;1.60;;
8831;SDS011;4452;50.756;4.472;2022-08-05T12:08:47;2.75;;;1.60;;
8831;SDS011;4452;50.756;4.472;2022-08-05T12:11:18;3.05;;;1.77;;
8831;SDS011;4452;50.756;4.472;2022-08-05T12:16:18;5.07;;;1.70;;
8831;SDS011;4452;50.756;4.472;2022-08-05T12:18:44;4.20;;;1.45;;
8831;SDS011;4452;50.756;4.472;2022-08-05T12:21:15;11.05;;;1.70;;
8831;SDS011;4452;50.756;4.472;2022-08-05T12:28:57;2.13;;;1.80;;
8831;SDS011;4452;50.756;4.472;2022-08-05T12:31:23;1.80;;;1.55;;
8831;SDS011;4452;50.756;4.472;2022-08-05T12:33:49;4.30;;;1.65;;
8831;SDS011;4452;50.756;4.472;2022-08-05T12:36:15;17.15;;;1.55;;
8831;SDS011;4452;50.756;4.472;2022-08-05T12:38:41;3.65;;;1.40;;
8831;SDS011;4452;50.756;4.472;2022-08-05T12:41:10;3.33;;;1.40;;
8831;SDS011;4452;50.756;4.472;2022-08-05T12:43:54;4.85;;;1.75;;
8831;SDS011;4452;50.756;4.472;2022-08-05T12:46:22;6.32;;;1.60;;
8831;SDS011;4452;50.756;4.472;2022-08-05T12:49:06;8.70;;;1.65;;
8831;SDS011;4452;50.756;4.472;2022-08-05T12:51:57;10.02;;;1.85;;
8831;SDS011;4452;50.756;4.472;2022-08-05T12:54:25;1.75;;;1.60;;
8831;SDS011;4452;50.756;4.472;2022-08-05T12:56:53;5.22;;;1.60;;
8831;SDS011;4452;50.756;4.472;2022-08-05T12:59:28;5.45;;;1.77;;
8831;SDS011;4452;50.756;4.472;2022-08-05T13:02:06;1.85;;;1.40;;
8831;SDS011;4452;50.756;4.472;2022-08-05T13:04:36;3.30;;;1.48;;
8831;SDS011;4452;50.756;4.472;2022-08-05T13:07:04;2.70;;;1.40;;
8831;SDS011;4452;50.756;4.472;2022-08-05T13:09:38;2.63;;;1.27;;
8831;SDS011;4452;50.756;4.472;2022-08-05T13:12:10;3.30;;;1.33;;
8831;SDS011;4452;50.756;4.472;2022-08-05T13:14:44;2.50;;;1.10;;
8831;SDS011;4452;50.756;4.472;2022-08-05T13:22:22;0.93;;;0.93;;
8831;SDS011;4452;50.756;4.472;2022-08-05T13:24:49;1.77;;;1.10;;
8831;SDS011;4452;50.756;4.472;2022-08-05T13:27:28;2.03;;;1.20;;
8831;SDS011;4452;50.756;4.472;2022-08-05T13:29:58;2.03;;;1.52;;
8831;SDS011;4452;50.756;4.472;2022-08-05T13:32:24;3.03;;;1.00;;
8831;SDS011;4452;50.756;4.472;2022-08-05T13:34:50;1.50;;;0.88;;
8831;SDS011;4452;50.756;4.472;2022-08-05T13:37:17;6.78;;;1.40;;
8831;SDS011;4452;50.756;4.472;2022-08-05T13:39:43;2.60;;;1.15;;
8831;SDS011;4452;50.756;4.472;2022-08-05T13:42:09;5.20;;;1.23;;
8831;SDS011;4452;50.756;4.472;2022-08-05T13:44:35;5.35;;;1.10;;
8831;SDS011;4452;50.756;4.472;2022-08-05T13:47:01;2.33;;;1.00;;
8831;SDS011;4452;50.756;4.472;2022-08-05T13:49:27;5.30;;;1.10;;
8831;SDS011;4452;50.756;4.472;2022-08-05T13:51:53;2.35;;;0.95;;
8831;SDS011;4452;50.756;4.472;2022-08-05T13:54:18;12.73;;;1.48;;
8831;SDS011;4452;50.756;4.472;2022-08-05T13:56:44;2.00;;;1.20;;
8831;SDS011;4452;50.756;4.472;2022-08-05T13:59:11;4.07;;;1.30;;
8831;SDS011;4452;50.756;4.472;2022-08-05T14:01:37;1.48;;;1.15;;
8831;SDS011;4452;50.756;4.472;2022-08-05T14:04:04;3.90;;;1.15;;
8831;SDS011;4452;50.756;4.472;2022-08-05T14:06:49;1.42;;;1.02;;
8831;SDS011;4452;50.756;4.472;2022-08-05T14:09:14;0.95;;;0.95;;
8831;SDS011;4452;50.756;4.472;2022-08-05T14:11:40;3.00;;;1.00;;
8831;SDS011;4452;50.756;4.472;2022-08-05T14:14:06;2.95;;;1.02;;
8831;SDS011;4452;50.756;4.472;2022-08-05T14:16:32;4.20;;;1.17;;
8831;SDS011;4452;50.756;4.472;2022-08-05T14:18:58;2.95;;;1.15;;
8831;SDS011;4452;50.756;4.472;2022-08-05T14:21:25;3.33;;;1.33;;
8831;SDS011;4452;50.756;4.472;2022-08-05T14:23:50;3.10;;;1.52;;
8831;SDS011;4452;50.756;4.472;2022-08-05T14:26:16;5.28;;;1.45;;
8831;SDS011;4452;50.756;4.472;2022-08-05T14:28:42;1.23;;;1.13;;
8831;SDS011;4452;50.756;4.472;2022-08-05T14:31:07;6.65;;;1.10;;
8831;SDS011;4452;50.756;4.472;2022-08-05T14:33:33;1.98;;;1.10;;
8831;SDS011;4452;50.756;4.472;2022-08-05T14:35:59;3.00;;;1.42;;
8831;SDS011;4452;50.756;4.472;2022-08-05T14:38:25;1.10;;;1.00;;
8831;SDS011;4452;50.756;4.472;2022-08-05T14:40:51;1.30;;;1.20;;
8831;SDS011;4452;50.756;4.472;2022-08-05T14:43:18;2.42;;;1.23;;
8831;SDS011;4452;50.756;4.472;2022-08-05T14:45:44;1.10;;;1.10;;
8831;SDS011;4452;50.756;4.472;2022-08-05T14:48:09;7.63;;;1.27;;
8831;SDS011;4452;50.756;4.472;2022-08-05T14:50:35;6.18;;;1.45;;
8831;SDS011;4452;50.756;4.472;2022-08-05T14:53:01;1.00;;;1.00;;
8831;SDS011;4452;50.756;4.472;2022-08-05T14:55:26;2.40;;;0.88;;
8831;SDS011;4452;50.756;4.472;2022-08-05T14:57:52;1.95;;;0.90;;
8831;SDS011;4452;50.756;4.472;2022-08-05T15:00:18;3.03;;;1.08;;
8831;SDS011;4452;50.756;4.472;2022-08-05T15:02:45;2.58;;;1.20;;
8831;SDS011;4452;50.756;4.472;2022-08-05T15:05:11;2.28;;;1.17;;
8831;SDS011;4452;50.756;4.472;2022-08-05T15:07:38;1.30;;;1.10;;
8831;SDS011;4452;50.756;4.472;2022-08-05T15:10:04;0.90;;;0.90;;
8831;SDS011;4452;50.756;4.472;2022-08-05T15:12:31;7.05;;;1.20;;
8831;SDS011;4452;50.756;4.472;2022-08-05T15:14:57;3.25;;;1.00;;
8831;SDS011;4452;50.756;4.472;2022-08-05T15:17:23;1.60;;;1.25;;
8831;SDS011;4452;50.756;4.472;2022-08-05T15:19:49;4.88;;;1.40;;
8831;SDS011;4452;50.756;4.472;2022-08-05T15:22:15;5.95;;;2.00;;
8831;SDS011;4452;50.756;4.472;2022-08-05T15:24:41;1.73;;;1.30;;
8831;SDS011;4452;50.756;4.472;2022-08-05T15:27:08;3.58;;;1.20;;
8831;SDS011;4452;50.756;4.472;2022-08-05T15:29:34;4.38;;;1.02;;
8831;SDS011;4452;50.756;4.472;2022-08-05T15:31:59;3.35;;;1.08;;
8831;SDS011;4452;50.756;4.472;2022-08-05T15:34:25;3.08;;;1.33;;
8831;SDS011;4452;50.756;4.472;2022-08-05T15:36:50;6.53;;;1.25;;
8831;SDS011;4452;50.756;4.472;2022-08-05T15:39:16;1.67;;;0.98;;
8831;SDS011;4452;50.756;4.472;2022-08-05T15:41:42;5.53;;;1.10;;
8831;SDS011;4452;50.756;4.472;2022-08-05T15:44:08;3.67;;;1.23;;
8831;SDS011;4452;50.756;4.472;2022-08-05T15:46:33;2.15;;;1.00;;
8831;SDS011;4452;50.756;4.472;2022-08-05T15:48:59;1.83;;;1.00;;
8831;SDS011;4452;50.756;4.472;2022-08-05T15:51:25;0.90;;;0.90;;
8831;SDS011;4452;50.756;4.472;2022-08-05T15:53:51;4.18;;;1.10;;
8831;SDS011;4452;50.756;4.472;2022-08-05T15:56:18;1.30;;;0.90;;
8831;SDS011;4452;50.756;4.472;2022-08-05T15:58:44;1.60;;;1.05;;
8831;SDS011;4452;50.756;4.472;2022-08-05T16:01:10;2.22;;;1.00;;
8831;SDS011;4452;50.756;4.472;2022-08-05T16:03:38;2.42;;;1.20;;
8831;SDS011;4452;50.756;4.472;2022-08-05T16:06:04;1.98;;;1.27;;
8831;SDS011;4452;50.756;4.472;2022-08-05T16:08:31;1.42;;;1.00;;
8831;SDS011;4452;50.756;4.472;2022-08-05T16:10:57;6.35;;;1.08;;
8831;SDS011;4452;50.756;4.472;2022-08-05T16:13:23;5.38;;;1.40;;
8831;SDS011;4452;50.756;4.472;2022-08-05T16:15:48;1.02;;;1.02;;
8831;SDS011;4452;50.756;4.472;2022-08-05T16:18:16;2.17;;;1.20;;
8831;SDS011;4452;50.756;4.472;2022-08-05T16:20:42;2.15;;;0.90;;
8831;SDS011;4452;50.756;4.472;2022-08-05T16:23:07;1.42;;;0.80;;
8831;SDS011;4452;50.756;4.472;2022-08-05T16:25:33;2.67;;;1.00;;